Time;durP1;ratioP1;P1;durP2;ratioP2;P2;SDS_P1;SDS_P2;PMS_P1;PMS_P2;Temp;Humidity;BMP_temperature;BMP_pressure;BME280_temperature;BME280_humidity;BME280_pressure;Samples;Min_cycle;Max_cycle;Signal;HPM_P1;HPM_P2
2022/09/01 00:05:40;;;;;;;;;;;;;;;;;;21261728;27;20299;-56
2022/09/01 00:15:42;;;;;;;;;;;;;;;;;;21259411;27;19968;-59
2022/09/01 00:25:44;;;;;;;;;;;;;;;;;;21258118;27;19923;-61
2022/09/01 00:35:46;;;;;;;;;;;;;;;;;;21257690;27;20007;-60
2022/09/01 00:45:50;;;;;;;;;;;;;;;;;;21257394;27;20291;-56
2022/09/01 00:55:52;;;;;;;;;;;;;;;;;;21255637;27;19924;-54
2022/09/01 01:05:54;;;;;;;;;;;;;;;;;;21255869;27;19927;-58
2022/09/01 01:15:56;;;;;;;;;;;;;;;;;;21255353;27;19958;-60
2022/09/01 01:26:00;;;;;;;;;;;;;;;;;;21253804;27;19931;-58
2022/09/01 01:36:06;;;;;;;;;;;;;;;;;;21253806;27;20371;-53
2022/09/01 01:46:11;;;;;;;;;;;;;;;;;;21254052;27;19948;-53
2022/09/01 01:56:17;;;;;;;;;;;;;;;;;;21252454;27;19930;-54
2022/09/01 02:06:24;;;;;;;;;;;;;;;;;;21250283;27;19931;-54
2022/09/01 02:16:27;;;;;;;;;;;;;;;;;;21250372;27;20057;-58
2022/09/01 02:26:32;;;;;;;;;;;;;;;;;;21248805;27;19930;-63
2022/09/01 02:36:36;;;;;;;;;;;;;;;;;;21248923;27;19924;-61
2022/09/01 02:46:42;;;;;;;;;;;;;;;;;;21248657;27;19984;-53
2022/09/01 02:56:48;;;;;;;;;;;;;;;;;;21247961;28;20022;-59
2022/09/01 03:06:53;;;;;;;;;;;;;;;;;;21247573;28;20292;-53
2022/09/01 03:16:56;;;;;;;;;;;;;;;;;;21247202;28;19967;-60
2022/09/01 03:26:59;;;;;;;;;;;;;;;;;;21263007;27;19935;-58
2022/09/01 03:37:08;;;;;;;;;;;;;;;;;;21263455;27;19969;-53
2022/09/01 03:47:09;;;;;;;;;;;;;;;;;;21261958;27;20041;-61
2022/09/01 03:57:11;;;;;;;;;;;;;;;;;;21261451;27;20286;-54
2022/09/01 04:07:13;;;;;;;;;;;;;;;;;;21260734;27;20349;-63
2022/09/01 04:27:39;;;;;;;;;;;;;;;;;;21259382;27;20287;-61
2022/09/01 04:37:42;;;;;;;;;;;;;;;;;;21256585;27;20018;-62
2022/09/01 04:47:47;;;;;;;;;;;;;;;;;;21257304;27;19923;-62
2022/09/01 04:57:49;;;;;;;;;;;;;;;;;;21256203;27;20030;-61
2022/09/01 05:07:51;;;;;;;;;;;;;;;;;;21256376;27;20403;-59
2022/09/01 05:17:57;;;;;;;;;;;;;;;;;;21254863;27;20271;-55
2022/09/01 05:28:01;;;;;;;;;;;;;;;;;;21254967;27;19930;-53
2022/09/01 05:38:03;;;;;;;;;;;;;;;;;;21253006;27;19923;-59
2022/09/01 05:48:08;;;;;;;;;;;;;;;;;;21251918;27;19923;-60
2022/09/01 05:58:12;;;;;;;;;;;;;;;;;;21252388;27;19980;-60
2022/09/01 06:08:14;;;;;;;;;;;;;;;;;;21252468;27;20346;-63
2022/09/01 06:18:16;;;;;;;;;;;;;;;;;;21256191;27;19968;-59
2022/09/01 06:28:21;;;;;;;;;;;;;;;;;;21270293;27;20371;-63
2022/09/01 06:38:25;;;;;;;;;;;;;;;;;;21258352;27;19928;-58
2022/09/01 06:48:29;;;;;;;;;;;;;;;;;;21249968;27;19931;-61
2022/09/01 06:58:40;;;;;;;;;;;;;;;;;;21259009;27;19927;-55
2022/09/01 07:08:48;;;;;;;;;;;;;;;;;;21265357;27;20018;-59
2022/09/01 07:18:50;;;;;;;;;;;;;;;;;;21272198;27;19924;-61
2022/09/01 07:28:53;;;;;;;;;;;;;;;;;;21267179;27;19931;-60
2022/09/01 07:38:55;;;;;;;;;;;;;;;;;;21263694;27;19924;-58
2022/09/01 07:48:57;;;;;;;;;;;;;;;;;;21263676;27;19924;-59
2022/09/01 07:59:01;;;;;;;;;;;;;;;;;;21262042;27;19927;-59
2022/09/01 08:09:05;;;;;;;;;;;;;;;;;;21259450;27;19931;-59
2022/09/01 08:19:07;;;;;;;;;;;;;;;;;;21259627;27;19927;-59
2022/09/01 08:29:09;;;;;;;;;;;;;;;;;;21209301;27;19931;-60
2022/09/01 08:43:55;;;;;;;;;;;;;;;;;;21061213;27;19916;-61
2022/09/01 08:53:57;;;;;;;;;;;;;;;;;;20993324;28;19933;-64
2022/09/01 09:03:59;;;;;;;;;;;;;;;;;;20984730;28;20384;-63
2022/09/01 09:14:01;;;;;;;;;;;;;;;;;;20984143;28;20003;-63
2022/09/01 09:24:03;;;;;;;;;;;;;;;;;;20982718;28;20019;-63
2022/09/01 09:34:06;;;;;;;;;;;;;;;;;;20980772;28;19928;-63
2022/09/01 09:44:07;;;;;;;;;;;;;;;;;;20979801;28;20389;-63
2022/09/01 09:54:10;;;;;;;;;;;;;;;;;;20930198;28;19929;-62
2022/09/01 10:04:12;;;;;;;;;;;;;;;;;;20924717;28;19948;-62
2022/09/01 10:14:14;;;;;;;;;;;;;;;;;;20921614;28;19948;-63
2022/09/01 10:24:15;;;;;;;;;;;;;;;;;;20922996;28;19978;-63
2022/09/01 10:34:18;;;;;;;;;;;;;;;;;;20920987;28;19974;-62
2022/09/01 10:44:19;;;;;;;;;;;;;;;;;;20920725;28;20012;-61
2022/09/01 10:54:21;;;;;;;;;;;;;;;;;;20920751;28;19924;-63
2022/09/01 11:04:23;;;;;;;;;;;;;;;;;;20920056;28;19932;-62
2022/09/01 11:14:25;;;;;;;;;;;;;;;;;;20918659;28;19924;-62
2022/09/01 11:24:27;;;;;;;;;;;;;;;;;;20933314;28;19994;-64
2022/09/01 11:34:30;;;;;;;;;;;;;;;;;;20916932;28;19925;-63
2022/09/01 11:44:32;;;;;;;;;;;;;;;;;;20916978;28;19987;-63
2022/09/01 11:54:34;;;;;;;;;;;;;;;;;;20915905;28;19925;-67
2022/09/01 12:04:36;;;;;;;;;;;;;;;;;;20915427;28;19952;-62
2022/09/01 12:14:38;;;;;;;;;;;;;;;;;;20915583;28;19929;-64
2022/09/01 12:24:40;;;;;;;;;;;;;;;;;;20914331;28;20039;-62
2022/09/01 12:34:42;;;;;;;;;;;;;;;;;;20913348;28;19925;-64
2022/09/01 12:44:45;;;;;;;;;;;;;;;;;;20914284;28;19931;-63
2022/09/01 12:54:47;;;;;;;;;;;;;;;;;;20913154;28;19925;-64
2022/09/01 13:04:49;;;;;;;;;;;;;;;;;;20913746;28;20015;-63
2022/09/01 13:14:51;;;;;;;;;;;;;;;;;;20912323;28;19976;-63
2022/09/01 13:24:54;;;;;;;;;;;;;;;;;;20917889;28;19967;-62
2022/09/01 13:34:56;;;;;;;;;;;;;;;;;;20927904;28;19925;-63
2022/09/01 13:44:58;;;;;;;;;;;;;;;;;;20926820;28;19936;-62
2022/09/01 13:55:01;;;;;;;;;;;;;;;;;;20925155;28;20035;-62
2022/09/01 14:05:03;;;;;;;;;;;;;;;;;;20924780;28;19931;-61
2022/09/01 14:15:05;;;;;;;;;;;;;;;;;;20922760;28;19933;-62
2022/09/01 14:25:07;;;;;;;;;;;;;;;;;;20924635;28;19925;-62
2022/09/01 14:35:09;;;;;;;;;;;;;;;;;;20921549;28;19928;-63
2022/09/01 14:45:11;;;;;;;;;;;;;;;;;;20921992;28;19970;-62
2022/09/01 14:55:12;;;;;;;;;;;;;;;;;;20921131;28;19925;-62
2022/09/01 15:05:14;;;;;;;;;;;;;;;;;;20919625;28;19924;-62
2022/09/01 15:15:17;;;;;;;;;;;;;;;;;;20919219;28;20405;-62
2022/09/01 15:25:18;;;;;;;;;;;;;;;;;;20918858;28;19929;-63
2022/09/01 15:35:21;;;;;;;;;;;;;;;;;;20918219;28;19970;-62
2022/09/01 15:45:23;;;;;;;;;;;;;;;;;;20917727;28;20446;-62
2022/09/01 15:55:25;;;;;;;;;;;;;;;;;;20917935;28;19931;-63
2022/09/01 16:05:27;;;;;;;;;;;;;;;;;;20915170;28;20391;-62
2022/09/01 16:15:30;;;;;;;;;;;;;;;;;;20915064;28;19925;-63
2022/09/01 16:25:32;;;;;;;;;;;;;;;;;;20914138;28;20246;-62
2022/09/01 16:35:34;;;;;;;;;;;;;;;;;;20928605;28;19925;-62
2022/09/01 16:45:36;;;;;;;;;;;;;;;;;;20912394;28;19932;-62
2022/09/01 16:55:40;;;;;;;;;;;;;;;;;;20912424;28;19979;-62
2022/09/01 17:05:42;;;;;;;;;;;;;;;;;;20929525;28;19925;-63
2022/09/01 17:15:46;;;;;;;;;;;;;;;;;;20928258;28;19925;-62
2022/09/01 17:25:48;;;;;;;;;;;;;;;;;;20927266;28;19991;-63
2022/09/01 17:35:51;;;;;;;;;;;;;;;;;;20926726;28;19924;-62
2022/09/01 17:45:53;;;;;;;;;;;;;;;;;;20926058;28;19925;-63
2022/09/01 17:55:55;;;;;;;;;;;;;;;;;;20926355;28;20262;-63
2022/09/01 18:05:57;;;;;;;;;;;;;;;;;;20924448;28;20034;-62
2022/09/01 18:15:59;;;;;;;;;;;;;;;;;;20923049;28;20399;-63
2022/09/01 18:26:01;;;;;;;;;;;;;;;;;;20923621;28;19968;-61
2022/09/01 18:36:03;;;;;;;;;;;;;;;;;;20922426;28;20364;-62
2022/09/01 18:46:05;;;;;;;;;;;;;;;;;;20921347;28;19928;-62
2022/09/01 18:56:07;;;;;;;;;;;;;;;;;;20920857;28;20400;-64
2022/09/01 19:06:08;;;;;;;;;;;;;;;;;;20919546;28;19978;-62
2022/09/01 19:16:12;;;;;;;;;;;;;;;;;;20919345;28;19948;-62
2022/09/01 19:26:14;;;;;;;;;;;;;;;;;;20917540;28;19925;-62
2022/09/01 19:36:16;;;;;;;;;;;;;;;;;;20916995;28;19932;-62
2022/09/01 19:46:18;;;;;;;;;;;;;;;;;;20917372;28;20011;-63
2022/09/01 19:56:20;;;;;;;;;;;;;;;;;;20916078;28;19924;-64
2022/09/01 20:06:21;;;;;;;;;;;;;;;;;;20916248;28;20004;-63
2022/09/01 20:16:23;;;;;;;;;;;;;;;;;;20914984;28;19932;-63
2022/09/01 20:26:26;;;;;;;;;;;;;;;;;;20913780;28;19924;-62
2022/09/01 20:36:27;;;;;;;;;;;;;;;;;;20913977;28;20440;-61
2022/09/01 20:46:29;;;;;;;;;;;;;;;;;;20913320;28;19932;-63
2022/09/01 20:56:31;;;;;;;;;;;;;;;;;;20912831;28;20373;-63
2022/09/01 21:06:33;;;;;;;;;;;;;;;;;;20912755;28;19964;-62
2022/09/01 21:16:35;;;;;;;;;;;;;;;;;;20912031;28;19924;-61
2022/09/01 21:26:39;;;;;;;;;;;;;;;;;;20911934;28;20385;-62
2022/09/01 21:36:40;;;;;;;;;;;;;;;;;;20912208;28;19939;-62
2022/09/01 21:46:42;;;;;;;;;;;;;;;;;;20919936;28;19925;-62
2022/09/01 21:56:44;;;;;;;;;;;;;;;;;;20928869;28;19929;-62
2022/09/01 22:06:46;;;;;;;;;;;;;;;;;;20940689;28;20007;-61
2022/09/01 22:16:51;;;;;;;;;;;;;;;;;;20926189;28;20335;-62
2022/09/01 22:26:54;;;;;;;;;;;;;;;;;;20925462;28;20020;-63
2022/09/01 22:36:56;;;;;;;;;;;;;;;;;;20923534;28;20262;-62
2022/09/01 22:46:59;;;;;;;;;;;;;;;;;;20922714;28;19967;-63
2022/09/01 22:57:01;;;;;;;;;;;;;;;;;;20921578;28;19970;-62
2022/09/01 23:07:04;;;;;;;;;;;;;;;;;;20921235;28;19932;-62
2022/09/01 23:17:06;;;;;;;;;;;;;;;;;;20920154;28;20274;-62
2022/09/01 23:27:08;;;;;;;;;;;;;;;;;;20919644;28;19932;-62
2022/09/01 23:37:10;;;;;;;;;;;;;;;;;;20922507;28;19932;-63
2022/09/01 23:47:12;;;;;;;;;;;;;;;;;;20919069;28;19932;-61
2022/09/01 23:57:14;;;;;;;;;;;;;;;;;;20917410;28;19924;-62
